createdAt,value
2018-08-09T00:00:30.109Z,80.77
2018-08-09T00:02:58.185Z,80.08
2018-08-09T00:05:26.457Z,80.30
2018-08-09T00:07:54.199Z,80.40
2018-08-09T00:10:22.202Z,81.02
2018-08-09T00:12:50.580Z,80.34
2018-08-09T00:15:18.956Z,80.41
2018-08-09T00:17:47.235Z,81.52
2018-08-09T00:20:15.505Z,81.96
2018-08-09T00:22:43.773Z,82.93
2018-08-09T00:25:12.086Z,82.55
2018-08-09T00:27:40.327Z,82.18
2018-08-09T00:30:08.398Z,81.61
2018-08-09T00:32:36.677Z,81.33
2018-08-09T00:35:04.854Z,81.70
2018-08-09T00:37:33.087Z,81.80
2018-08-09T00:40:01.207Z,82.13
2018-08-09T00:42:29.362Z,82.29
2018-08-09T00:44:57.641Z,81.40
2018-08-09T00:47:25.822Z,81.27
2018-08-09T00:49:53.890Z,81.32
2018-08-09T00:52:22.079Z,80.93
2018-08-09T00:54:50.226Z,80.95
2018-08-09T00:57:18.309Z,81.31
2018-08-09T00:59:46.486Z,82.31
2018-08-09T01:02:14.758Z,82.79
2018-08-09T01:04:42.921Z,83.21
2018-08-09T01:07:11.096Z,83.71
2018-08-09T01:09:39.277Z,82.97
2018-08-09T01:12:07.550Z,83.15
2018-08-09T01:14:35.830Z,83.29
2018-08-09T01:17:03.961Z,84.55
2018-08-09T01:19:32.291Z,84.44
2018-08-09T01:22:00.546Z,84.24
2018-08-09T01:24:28.728Z,84.18
2018-08-09T01:26:56.997Z,84.26
2018-08-09T01:29:25.221Z,84.63
2018-08-09T01:31:53.339Z,84.95
2018-08-09T01:34:21.518Z,85.12
2018-08-09T01:36:49.689Z,85.13
2018-08-09T01:39:17.966Z,84.62
2018-08-09T01:41:56.886Z,85.56
2018-08-09T01:44:24.963Z,85.10
2018-08-09T01:46:53.121Z,85.38
2018-08-09T01:49:21.211Z,85.94
2018-08-09T01:51:49.386Z,85.57
2018-08-09T01:54:17.555Z,85.95
2018-08-09T01:56:45.921Z,86.76
2018-08-09T01:59:14.149Z,86.69
2018-08-09T02:01:42.261Z,86.25
2018-08-09T02:04:10.334Z,86.07
2018-08-09T02:06:38.522Z,86.27
2018-08-09T02:09:08.577Z,86.46
2018-08-09T02:11:36.912Z,86.49
2018-08-09T02:14:05.190Z,86.47
2018-08-09T02:16:33.362Z,86.46
2018-08-09T02:19:01.521Z,86.46
2018-08-09T02:21:29.804Z,86.99
2018-08-09T02:23:57.978Z,86.61
2018-08-09T02:26:25.698Z,87.06
2018-08-09T02:28:53.913Z,86.96
2018-08-09T02:31:22.093Z,86.88
2018-08-09T02:33:50.031Z,87.00
2018-08-09T02:36:18.138Z,87.44
2018-08-09T02:38:46.405Z,87.66
2018-08-09T02:41:14.583Z,87.65
2018-08-09T02:43:42.632Z,87.56
2018-08-09T02:46:10.926Z,87.51
2018-08-09T02:48:39.102Z,87.05
2018-08-09T02:51:07.139Z,88.14
2018-08-09T02:53:35.233Z,88.43
2018-08-09T02:56:03.414Z,88.58
2018-08-09T02:58:31.481Z,89.22
2018-08-09T03:00:59.657Z,88.76
2018-08-09T03:03:27.831Z,88.28
2018-08-09T03:05:55.997Z,88.08
2018-08-09T03:08:24.074Z,88.86
2018-08-09T03:10:52.146Z,89.14
2018-08-09T03:13:19.878Z,88.89
2018-08-09T03:15:48.073Z,88.97
2018-08-09T03:18:16.149Z,88.46
2018-08-09T03:20:44.113Z,87.83
2018-08-09T03:23:12.173Z,87.49
2018-08-09T03:25:40.367Z,88.06
2018-08-09T03:28:08.625Z,88.04
2018-08-09T03:30:36.614Z,87.43
2018-08-09T03:33:04.783Z,87.71
2018-08-09T03:35:32.955Z,88.74
2018-08-09T03:38:01.234Z,88.84
2018-08-09T03:40:29.506Z,88.29
2018-08-09T03:42:57.778Z,88.05
2018-08-09T03:45:26.045Z,88.40
2018-08-09T03:47:54.123Z,87.90
2018-08-09T03:50:22.401Z,87.57
2018-08-09T03:52:50.667Z,87.86
2018-08-09T03:55:18.742Z,87.48
2018-08-09T03:57:46.926Z,87.02
2018-08-09T04:00:14.881Z,86.72
2018-08-09T04:02:43.061Z,86.97
2018-08-09T04:05:11.437Z,87.27
2018-08-09T04:07:39.947Z,87.35
2018-08-09T04:10:08.402Z,87.49
2018-08-09T04:12:36.574Z,87.73
2018-08-09T04:15:06.335Z,87.06
2018-08-09T04:17:34.353Z,87.45
2018-08-09T04:20:02.623Z,88.30
2018-08-09T04:22:31.002Z,89.63
2018-08-09T04:24:59.998Z,90.14
2018-08-09T04:27:28.274Z,89.98
2018-08-09T04:29:56.434Z,89.47
2018-08-09T04:32:24.623Z,89.42
2018-08-09T04:34:52.794Z,88.59
2018-08-09T04:37:20.534Z,88.06
2018-08-09T04:39:48.269Z,87.70
2018-08-09T04:42:16.003Z,87.91
2018-08-09T04:44:43.747Z,87.50
2018-08-09T04:47:11.540Z,87.48
2018-08-09T04:49:39.282Z,87.04
2018-08-09T04:52:07.085Z,87.05
2018-08-09T04:54:34.825Z,88.01
2018-08-09T04:57:02.541Z,87.83
2018-08-09T04:59:30.242Z,87.16
2018-08-09T05:01:58.006Z,86.66
2018-08-09T05:04:26.188Z,87.13
2018-08-09T05:06:54.326Z,86.41
2018-08-09T05:09:22.095Z,86.66
2018-08-09T05:11:49.953Z,87.28
2018-08-09T05:14:18.134Z,87.21
2018-08-09T05:16:46.205Z,86.70
2018-08-09T05:19:14.477Z,86.59
2018-08-09T05:21:42.757Z,85.75
2018-08-09T05:24:11.018Z,86.84
2018-08-09T05:26:39.441Z,86.54
2018-08-09T05:29:07.677Z,86.77
2018-08-09T05:31:35.850Z,86.67
2018-08-09T05:34:04.155Z,85.86
2018-08-09T05:36:32.500Z,85.59
2018-08-09T05:39:00.778Z,85.50
2018-08-09T05:41:28.545Z,84.97
2018-08-09T05:43:56.731Z,83.32
2018-08-09T05:46:24.885Z,83.51
2018-08-09T05:48:53.082Z,82.65
2018-08-09T05:51:21.246Z,82.17
2018-08-09T05:53:49.518Z,81.82
2018-08-09T05:56:17.573Z,80.73
2018-08-09T05:58:45.753Z,80.42
2018-08-09T06:01:13.820Z,78.94
2018-08-09T06:03:42.281Z,77.42
2018-08-09T06:06:10.477Z,77.97
2018-08-09T06:08:38.554Z,77.66
2018-08-09T06:11:06.705Z,78.03
2018-08-09T06:13:34.834Z,76.68
2018-08-09T06:16:03.169Z,74.91
2018-08-09T06:18:31.556Z,75.20
2018-08-09T06:20:59.735Z,73.95
2018-08-09T06:23:27.884Z,74.00
2018-08-09T06:25:56.164Z,73.81
2018-08-09T06:28:23.994Z,74.07
2018-08-09T06:30:52.106Z,74.25
2018-08-09T06:33:20.517Z,73.65
2018-08-09T06:35:48.653Z,71.43
2018-08-09T06:38:17.046Z,72.26
2018-08-09T06:40:45.205Z,69.10
2018-08-09T06:43:13.498Z,68.78
2018-08-09T06:45:41.870Z,68.04
2018-08-09T06:48:10.142Z,67.96
2018-08-09T06:50:38.409Z,68.49
2018-08-09T06:53:06.506Z,68.47
2018-08-09T06:55:34.764Z,65.93
2018-08-09T06:58:02.921Z,65.20
2018-08-09T07:00:31.006Z,62.83
2018-08-09T07:02:59.388Z,63.09
2018-08-09T07:05:27.450Z,63.09
2018-08-09T07:07:55.629Z,63.89
2018-08-09T07:10:23.910Z,64.21
2018-08-09T07:12:52.333Z,60.17
2018-08-09T07:15:20.662Z,61.80
2018-08-09T07:17:48.924Z,60.51
2018-08-09T07:20:17.145Z,60.65
2018-08-09T07:22:45.476Z,61.43
2018-08-09T07:25:13.626Z,62.38
2018-08-09T07:27:41.739Z,62.01
2018-08-09T07:30:11.233Z,62.48
2018-08-09T07:32:39.550Z,62.08
2018-08-09T07:35:08.550Z,60.21
2018-08-09T07:37:36.787Z,61.86
2018-08-09T07:40:06.108Z,60.72
2018-08-09T07:42:34.345Z,61.72
2018-08-09T07:45:02.731Z,61.70
2018-08-09T07:47:30.904Z,61.13
2018-08-09T07:49:58.621Z,59.64
2018-08-09T07:52:26.386Z,61.09
2018-08-09T07:54:54.098Z,58.27
2018-08-09T07:57:21.861Z,56.38
2018-08-09T07:59:49.591Z,59.01
2018-08-09T08:02:17.326Z,58.07
2018-08-09T08:04:45.062Z,58.27
2018-08-09T08:07:12.854Z,58.19
2018-08-09T08:09:40.590Z,58.52
2018-08-09T08:12:08.597Z,56.13
2018-08-09T08:14:36.315Z,57.07
2018-08-09T08:17:04.076Z,58.39
2018-08-09T08:19:31.825Z,57.42
2018-08-09T08:21:59.585Z,55.82
2018-08-09T08:24:27.303Z,58.41
2018-08-09T08:26:55.181Z,57.42
2018-08-09T08:29:22.922Z,56.59
2018-08-09T08:31:51.323Z,57.73
2018-08-09T08:34:19.057Z,53.27
2018-08-09T08:36:46.793Z,56.70
2018-08-09T08:39:14.521Z,54.18
2018-08-09T08:41:42.386Z,53.51
2018-08-09T08:44:10.050Z,55.89
2018-08-09T08:46:37.798Z,50.56
2018-08-09T08:49:06.570Z,56.41
2018-08-09T08:51:34.293Z,55.87
2018-08-09T08:54:02.053Z,48.86
2018-08-09T08:56:29.802Z,55.90
2018-08-09T08:58:57.582Z,56.80
2018-08-09T09:01:25.388Z,55.16
2018-08-09T09:03:53.272Z,54.70
2018-08-09T09:06:21.090Z,55.45
2018-08-09T09:08:48.895Z,52.01
2018-08-09T09:11:16.629Z,50.61
2018-08-09T09:13:44.375Z,53.95
2018-08-09T09:16:12.198Z,55.36
2018-08-09T09:18:39.947Z,55.43
2018-08-09T09:21:07.797Z,55.14
2018-08-09T09:23:36.032Z,53.04
2018-08-09T09:26:03.837Z,54.61
2018-08-09T09:28:31.556Z,55.20
2018-08-09T09:30:59.305Z,54.47
2018-08-09T09:33:27.089Z,51.10
2018-08-09T09:35:54.841Z,49.20
2018-08-09T09:38:22.613Z,54.37
2018-08-09T09:40:50.341Z,51.66
2018-08-09T09:43:18.086Z,50.00
2018-08-09T09:45:45.923Z,50.33
2018-08-09T09:48:13.709Z,51.16
2018-08-09T09:50:41.466Z,53.13
2018-08-09T09:53:09.181Z,52.13
2018-08-09T09:55:37.549Z,53.56
2018-08-09T09:58:05.850Z,50.91
2018-08-09T10:00:39.413Z,51.50
2018-08-09T10:03:07.412Z,55.75
2018-08-09T10:05:35.142Z,51.58
2018-08-09T10:08:02.889Z,49.12
2018-08-09T10:10:30.621Z,49.84
2018-08-09T10:12:58.357Z,48.38
2018-08-09T10:15:26.090Z,53.50
2018-08-09T10:17:53.930Z,47.89
2018-08-09T10:20:21.722Z,46.62
2018-08-09T10:22:49.450Z,49.19
2018-08-09T10:25:17.212Z,47.91
2018-08-09T10:27:45.026Z,51.53
2018-08-09T10:30:12.785Z,54.72
2018-08-09T10:32:40.511Z,51.06
2018-08-09T10:35:08.342Z,52.04
2018-08-09T10:37:36.085Z,53.88
2018-08-09T10:40:04.082Z,52.93
2018-08-09T10:42:31.793Z,53.60
2018-08-09T10:44:59.524Z,51.87
2018-08-09T10:47:27.283Z,53.00
2018-08-09T10:49:55.056Z,43.38
2018-08-09T10:52:22.788Z,51.75
2018-08-09T10:54:51.242Z,45.21
2018-08-09T10:57:19.124Z,49.25
2018-08-09T10:59:46.850Z,45.69
2018-08-09T11:02:14.642Z,50.73
2018-08-09T11:04:42.382Z,45.10
2018-08-09T11:07:10.149Z,53.23
2018-08-09T11:09:37.875Z,46.89
2018-08-09T11:12:05.639Z,44.56
2018-08-09T11:14:33.442Z,42.25
2018-08-09T11:17:01.194Z,50.44
2018-08-09T11:19:28.930Z,43.86
2018-08-09T11:21:56.733Z,50.61
2018-08-09T11:24:24.466Z,41.95
2018-08-09T11:26:52.198Z,49.29
2018-08-09T11:29:19.962Z,51.95
2018-08-09T11:31:47.681Z,48.05
2018-08-09T11:34:15.401Z,48.68
2018-08-09T11:36:43.518Z,44.01
2018-08-09T11:39:12.243Z,42.54
2018-08-09T11:41:40.009Z,41.04
2018-08-09T11:44:08.894Z,46.40
2018-08-09T11:46:37.057Z,42.71
2018-08-09T11:49:05.338Z,46.29
2018-08-09T11:51:33.569Z,47.64
2018-08-09T11:54:01.685Z,41.17
2018-08-09T11:56:29.931Z,40.62
2018-08-09T11:58:58.133Z,43.75
2018-08-09T12:01:26.441Z,42.67
2018-08-09T12:03:54.497Z,48.76
2018-08-09T12:06:22.864Z,45.38
2018-08-09T12:08:51.026Z,41.01
2018-08-09T12:11:19.224Z,39.97
2018-08-09T12:13:47.473Z,41.14
2018-08-09T12:16:15.762Z,38.63
2018-08-09T12:18:44.133Z,40.14
2018-08-09T12:21:12.102Z,46.04
2018-08-09T12:23:40.522Z,47.76
2018-08-09T12:26:08.862Z,40.67
2018-08-09T12:28:36.914Z,42.88
2018-08-09T12:31:04.722Z,39.75
2018-08-09T12:33:32.534Z,42.59
2018-08-09T12:36:00.572Z,40.16
2018-08-09T12:38:28.397Z,40.90
2018-08-09T12:40:56.150Z,40.53
2018-08-09T12:43:23.970Z,41.12
2018-08-09T12:45:51.858Z,45.59
2018-08-09T12:48:19.661Z,42.80
2018-08-09T12:50:47.725Z,39.77
2018-08-09T12:53:15.997Z,41.99
2018-08-09T12:55:43.793Z,38.62
2018-08-09T12:58:12.148Z,40.51
2018-08-09T13:00:39.921Z,39.77
2018-08-09T13:03:08.035Z,46.36
2018-08-09T13:05:35.836Z,49.67
2018-08-09T13:08:03.751Z,47.90
2018-08-09T13:10:31.503Z,48.23
2018-08-09T13:12:59.294Z,40.02
2018-08-09T13:15:27.059Z,41.21
2018-08-09T13:17:55.364Z,42.16
2018-08-09T13:20:23.542Z,40.29
2018-08-09T13:22:51.821Z,39.13
2018-08-09T13:25:20.089Z,41.10
2018-08-09T13:27:48.474Z,43.84
2018-08-09T13:30:17.106Z,39.19
2018-08-09T13:32:45.431Z,41.43
2018-08-09T13:35:13.710Z,41.72
2018-08-09T13:37:42.226Z,38.79
2018-08-09T13:40:10.774Z,37.92
2018-08-09T13:42:39.708Z,38.99
2018-08-09T13:45:09.825Z,37.27
2018-08-09T13:47:38.312Z,39.49
2018-08-09T13:50:07.727Z,46.77
2018-08-09T13:52:36.055Z,37.77
2018-08-09T13:55:04.777Z,38.72
2018-08-09T13:57:32.998Z,37.08
2018-08-09T14:00:01.383Z,38.13
2018-08-09T14:02:29.760Z,41.13
2018-08-09T14:04:57.991Z,36.53
2018-08-09T14:07:26.189Z,37.11
2018-08-09T14:09:54.373Z,43.68
2018-08-09T14:12:22.758Z,45.15
2018-08-09T14:14:51.034Z,43.99
2018-08-09T14:17:19.413Z,35.94
2018-08-09T14:19:47.681Z,38.95
2018-08-09T14:22:16.066Z,37.54
2018-08-09T14:24:44.422Z,42.76
2018-08-09T14:27:12.403Z,35.49
2018-08-09T14:29:40.789Z,37.44
2018-08-09T14:32:09.957Z,44.15
2018-08-09T14:34:38.057Z,37.44
2018-08-09T14:37:06.633Z,45.49
2018-08-09T14:39:34.814Z,40.07
2018-08-09T14:42:03.321Z,37.48
2018-08-09T14:44:31.465Z,39.69
2018-08-09T14:46:59.833Z,39.03
2018-08-09T14:49:28.109Z,44.50
2018-08-09T14:51:56.394Z,38.31
2018-08-09T14:54:24.664Z,46.71
2018-08-09T14:56:52.941Z,37.41
2018-08-09T14:59:21.222Z,39.29
2018-08-09T15:01:49.297Z,37.33
2018-08-09T15:04:17.364Z,36.92
2018-08-09T15:06:45.630Z,45.07
2018-08-09T15:09:14.018Z,36.72
2018-08-09T15:11:42.190Z,38.87
2018-08-09T15:14:10.698Z,46.72
2018-08-09T15:16:38.938Z,41.36
2018-08-09T15:19:06.985Z,40.43
2018-08-09T15:21:35.285Z,36.17
2018-08-09T15:24:03.567Z,36.25
2018-08-09T15:26:31.531Z,35.67
2018-08-09T15:28:59.915Z,41.20
2018-08-09T15:31:28.083Z,36.36
2018-08-09T15:33:55.851Z,36.16
2018-08-09T15:36:24.227Z,36.03
2018-08-09T15:38:52.497Z,36.11
2018-08-09T15:41:20.783Z,38.81
2018-08-09T15:43:49.162Z,37.46
2018-08-09T15:46:17.421Z,37.33
2018-08-09T15:48:45.710Z,41.92
2018-08-09T15:51:13.976Z,40.78
2018-08-09T15:53:42.053Z,41.86
2018-08-09T15:56:10.426Z,39.24
2018-08-09T15:58:38.707Z,38.92
2018-08-09T16:01:07.088Z,42.11
2018-08-09T16:03:35.353Z,45.02
2018-08-09T16:06:03.747Z,39.37
2018-08-09T16:08:32.047Z,43.79
2018-08-09T16:11:00.180Z,41.43
2018-08-09T16:13:28.570Z,39.85
2018-08-09T16:15:56.909Z,42.73
2018-08-09T16:18:25.210Z,40.93
2018-08-09T16:20:53.484Z,46.84
2018-08-09T16:23:21.671Z,40.76
2018-08-09T16:25:50.050Z,40.97
2018-08-09T16:28:18.219Z,41.77
2018-08-09T16:30:46.495Z,41.47
2018-08-09T16:33:14.862Z,42.08
2018-08-09T16:35:43.277Z,43.31
2018-08-09T16:38:11.524Z,43.06
2018-08-09T16:40:39.902Z,43.48
2018-08-09T16:43:08.073Z,44.42
2018-08-09T16:45:36.256Z,43.42
2018-08-09T16:48:04.422Z,42.97
2018-08-09T16:50:32.329Z,43.70
2018-08-09T16:53:00.461Z,48.39
2018-08-09T16:55:28.829Z,44.47
2018-08-09T16:57:57.127Z,45.40
2018-08-09T17:00:25.408Z,45.46
2018-08-09T17:02:54.317Z,44.79
2018-08-09T17:05:24.540Z,44.48
2018-08-09T17:07:52.453Z,46.50
2018-08-09T17:10:22.428Z,46.67
2018-08-09T17:12:50.314Z,46.54
2018-08-09T17:15:21.480Z,47.03
2018-08-09T17:17:49.550Z,47.47
2018-08-09T17:20:21.678Z,48.21
2018-08-09T17:22:49.582Z,48.48
2018-08-09T17:25:17.802Z,48.58
2018-08-09T17:27:46.564Z,48.89
2018-08-09T17:30:15.821Z,49.13
2018-08-09T17:32:44.137Z,49.94
2018-08-09T17:35:13.489Z,49.32
2018-08-09T17:37:41.573Z,49.87
2018-08-09T17:40:17.453Z,50.10
2018-08-09T17:42:45.937Z,50.18
2018-08-09T17:45:14.418Z,50.71
2018-08-09T17:47:42.950Z,51.78
2018-08-09T17:50:11.041Z,51.67
2018-08-09T17:52:39.337Z,51.61
2018-08-09T17:55:09.830Z,51.81
2018-08-09T17:57:37.954Z,51.00
2018-08-09T18:00:08.661Z,51.81
2018-08-09T18:02:37.162Z,52.17
2018-08-09T18:05:06.389Z,52.47
2018-08-09T18:07:34.795Z,52.79
2018-08-09T18:10:03.105Z,53.15
2018-08-09T18:12:31.020Z,52.95
2018-08-09T18:14:59.255Z,53.34
2018-08-09T18:17:27.531Z,52.84
2018-08-09T18:19:55.905Z,53.64
2018-08-09T18:22:24.173Z,54.29
2018-08-09T18:24:52.457Z,53.67
2018-08-09T18:27:20.762Z,53.59
2018-08-09T18:29:49.122Z,53.82
2018-08-09T18:32:17.391Z,53.89
2018-08-09T18:34:45.765Z,53.51
2018-08-09T18:37:14.146Z,54.69
2018-08-09T18:39:42.522Z,53.84
2018-08-09T18:42:10.793Z,54.35
2018-08-09T18:44:39.074Z,54.44
2018-08-09T18:47:07.341Z,54.10
2018-08-09T18:49:35.671Z,54.02
2018-08-09T18:52:03.507Z,54.75
2018-08-09T18:54:31.858Z,54.58
2018-08-09T18:57:00.030Z,54.89
2018-08-09T18:59:27.938Z,55.31
2018-08-09T19:01:56.200Z,55.43
2018-08-09T19:04:24.358Z,55.79
2018-08-09T19:06:52.342Z,55.12
2018-08-09T19:09:20.690Z,55.73
2018-08-09T19:11:48.769Z,55.98
2018-08-09T19:14:16.946Z,55.85
2018-08-09T19:16:45.119Z,56.03
2018-08-09T19:19:13.273Z,55.67
2018-08-09T19:21:41.455Z,56.05
2018-08-09T19:24:09.844Z,56.82
2018-08-09T19:26:38.122Z,56.90
2018-08-09T19:29:06.282Z,57.18
2018-08-09T19:31:34.566Z,57.00
2018-08-09T19:34:02.842Z,57.02
2018-08-09T19:36:31.109Z,57.18
2018-08-09T19:38:59.357Z,57.70
2018-08-09T19:41:27.455Z,56.99
2018-08-09T19:43:55.730Z,58.02
2018-08-09T19:46:24.113Z,57.83
2018-08-09T19:48:52.481Z,57.57
2018-08-09T19:51:20.761Z,57.90
2018-08-09T19:53:48.596Z,57.98
2018-08-09T19:56:16.901Z,58.41
2018-08-09T19:58:45.082Z,58.23
2018-08-09T20:01:13.450Z,58.37
2018-08-09T20:03:41.530Z,58.79
2018-08-09T20:06:09.823Z,58.33
2018-08-09T20:08:38.082Z,59.57
2018-08-09T20:11:06.463Z,59.37
2018-08-09T20:13:34.743Z,58.60
2018-08-09T20:16:02.866Z,58.97
2018-08-09T20:18:31.286Z,59.34
2018-08-09T20:20:59.553Z,59.33
2018-08-09T20:23:27.725Z,59.69
2018-08-09T20:25:56.014Z,59.22
2018-08-09T20:28:24.285Z,58.94
2018-08-09T20:30:52.553Z,59.01
2018-08-09T20:33:20.425Z,58.97
2018-08-09T20:35:48.809Z,59.36
2018-08-09T20:38:16.982Z,59.76
2018-08-09T20:40:44.750Z,60.40
2018-08-09T20:43:13.026Z,60.36
2018-08-09T20:45:41.094Z,60.47
2018-08-09T20:48:09.466Z,60.51
2018-08-09T20:50:37.630Z,60.27
2018-08-09T20:53:06.020Z,60.73
2018-08-09T20:55:34.234Z,60.22
2018-08-09T20:58:02.366Z,60.66
2018-08-09T21:00:31.969Z,59.87
2018-08-09T21:03:00.807Z,59.95
2018-08-09T21:05:31.238Z,59.97
2018-08-09T21:07:59.565Z,60.16
2018-08-09T21:10:28.090Z,60.62
2018-08-09T21:12:56.205Z,61.22
2018-08-09T21:15:24.451Z,61.00
2018-08-09T21:17:52.760Z,61.67
2018-08-09T21:20:21.022Z,61.20
2018-08-09T21:22:49.773Z,62.24
2018-08-09T21:25:18.205Z,61.82
2018-08-09T21:27:46.949Z,61.89
2018-08-09T21:30:16.681Z,61.24
2018-08-09T21:32:45.429Z,61.70
2018-08-09T21:35:13.663Z,62.36
2018-08-09T21:37:42.341Z,62.05
2018-08-09T21:40:11.393Z,62.60
2018-08-09T21:42:39.816Z,62.86
2018-08-09T21:45:15.623Z,63.22
2018-08-09T21:47:43.844Z,63.66
2018-08-09T21:50:13.891Z,63.33
2018-08-09T21:52:42.333Z,63.20
2018-08-09T21:55:11.281Z,63.57
2018-08-09T21:57:39.497Z,64.29
2018-08-09T22:00:14.498Z,63.75
2018-08-09T22:02:42.819Z,64.34
2018-08-09T22:05:16.417Z,64.72
2018-08-09T22:07:49.973Z,64.32
2018-08-09T22:10:23.374Z,65.78
2018-08-09T22:12:56.882Z,66.10
2018-08-09T22:15:30.542Z,66.33
2018-08-09T22:18:04.344Z,66.70
2018-08-09T22:20:37.806Z,67.58
2018-08-09T22:23:05.985Z,67.27
2018-08-09T22:25:34.253Z,66.92
2018-08-09T22:28:02.421Z,67.45
2018-08-09T22:30:30.206Z,68.06
2018-08-09T22:32:58.365Z,67.66
2018-08-09T22:35:26.654Z,68.41
2018-08-09T22:37:54.825Z,68.46
2018-08-09T22:40:23.181Z,68.98
2018-08-09T22:42:51.377Z,69.29
2018-08-09T22:45:19.646Z,68.88
2018-08-09T22:47:48.025Z,69.15
2018-08-09T22:50:16.289Z,69.16
2018-08-09T22:52:44.576Z,69.39
2018-08-09T22:55:12.852Z,68.72
2018-08-09T22:57:41.216Z,68.94
2018-08-09T23:00:22.501Z,69.22
2018-08-09T23:02:51.135Z,69.24
2018-08-09T23:05:19.944Z,68.73
2018-08-09T23:07:48.259Z,69.32
2018-08-09T23:10:16.429Z,69.07
2018-08-09T23:12:44.631Z,68.73
2018-08-09T23:15:12.879Z,69.29
2018-08-09T23:17:41.089Z,68.89
2018-08-09T23:20:09.531Z,69.32
2018-08-09T23:22:37.662Z,69.08
2018-08-09T23:25:09.257Z,69.99
2018-08-09T23:27:37.525Z,70.18
2018-08-09T23:30:07.033Z,70.11
2018-08-09T23:32:35.568Z,70.55
2018-08-09T23:35:04.640Z,70.91
2018-08-09T23:37:32.891Z,71.11
2018-08-09T23:40:01.171Z,70.90
2018-08-09T23:42:29.310Z,70.87
2018-08-09T23:44:57.507Z,71.69
2018-08-09T23:47:25.778Z,71.58
2018-08-09T23:49:53.957Z,71.52
2018-08-09T23:52:22.126Z,72.01
2018-08-09T23:54:50.297Z,71.88
2018-08-09T23:57:18.673Z,71.89
2018-08-09T23:59:46.836Z,71.91
